createdAt,value
2018-06-17T00:02:15.315Z,17.70
2018-06-17T00:04:45.069Z,20.90
2018-06-17T00:07:15.181Z,17.87
2018-06-17T00:09:45.041Z,18.93
2018-06-17T00:12:14.861Z,23.17
2018-06-17T00:14:44.611Z,20.87
2018-06-17T00:17:14.415Z,19.80
2018-06-17T00:19:44.201Z,18.60
2018-06-17T00:22:13.952Z,21.03
2018-06-17T00:24:44.104Z,19.47
2018-06-17T00:27:13.879Z,21.33
2018-06-17T00:29:43.695Z,22.77
2018-06-17T00:32:13.449Z,25.40
2018-06-17T00:34:43.305Z,20.87
2018-06-17T00:37:13.123Z,21.33
2018-06-17T00:39:42.873Z,23.97
2018-06-17T00:42:12.651Z,20.90
2018-06-17T00:44:42.439Z,22.10
2018-06-17T00:47:12.279Z,24.23
2018-06-17T00:49:42.049Z,22.53
2018-06-17T00:52:12.297Z,25.33
2018-06-17T00:54:42.167Z,19.20
2018-06-17T00:57:22.585Z,23.27
2018-06-17T00:59:52.416Z,24.17
2018-06-17T01:02:22.309Z,22.80
2018-06-17T01:04:52.082Z,23.17
2018-06-17T01:07:21.880Z,19.53
2018-06-17T01:09:51.911Z,24.03
2018-06-17T01:12:21.745Z,24.37
2018-06-17T01:14:51.545Z,21.00
2018-06-17T01:17:21.421Z,27.00
2018-06-17T01:19:51.200Z,22.60
2018-06-17T01:22:20.953Z,24.33
2018-06-17T01:24:51.191Z,21.47
2018-06-17T01:27:20.981Z,24.30
2018-06-17T01:29:50.726Z,21.37
2018-06-17T01:32:20.677Z,23.83
2018-06-17T01:34:55.769Z,22.60
2018-06-17T01:37:25.721Z,19.17
2018-06-17T01:39:55.689Z,20.53
2018-06-17T01:42:25.512Z,21.93
2018-06-17T01:44:55.293Z,20.73
2018-06-17T01:47:25.053Z,24.17
2018-06-17T01:49:54.957Z,19.77
2018-06-17T01:52:24.803Z,20.03
2018-06-17T01:54:54.689Z,19.43
2018-06-17T01:57:24.433Z,22.27
2018-06-17T01:59:54.641Z,23.50
2018-06-17T02:02:24.382Z,21.47
2018-06-17T02:04:59.290Z,18.63
2018-06-17T02:07:34.059Z,20.17
2018-06-17T02:10:08.990Z,20.27
2018-06-17T02:12:38.783Z,17.90
2018-06-17T02:15:08.613Z,16.83
2018-06-17T02:17:38.372Z,16.47
2018-06-17T02:20:08.163Z,16.40
2018-06-17T02:22:37.973Z,16.47
2018-06-17T02:25:08.002Z,16.50
2018-06-17T02:27:37.785Z,17.37
2018-06-17T02:30:07.859Z,15.40
2018-06-17T02:32:37.761Z,20.20
2018-06-17T02:35:07.596Z,20.97
2018-06-17T02:37:37.420Z,17.30
2018-06-17T02:40:07.335Z,17.50
2018-06-17T02:42:37.129Z,21.30
2018-06-17T02:45:11.857Z,19.50
2018-06-17T02:47:46.405Z,19.70
2018-06-17T02:50:21.082Z,18.73
2018-06-17T02:52:55.641Z,18.97
2018-06-17T02:55:25.609Z,19.93
2018-06-17T02:57:55.365Z,18.43
2018-06-17T03:00:25.114Z,18.70
2018-06-17T03:02:54.915Z,19.07
2018-06-17T03:05:24.678Z,25.00
2018-06-17T03:07:54.499Z,22.17
2018-06-17T03:10:25.261Z,17.73
2018-06-17T03:12:55.077Z,17.43
2018-06-17T03:15:25.328Z,19.00
2018-06-17T03:17:55.120Z,15.63
2018-06-17T03:20:24.910Z,17.53
2018-06-17T03:22:54.719Z,18.00
2018-06-17T03:25:29.435Z,14.80
2018-06-17T03:28:04.217Z,18.67
2018-06-17T03:30:38.836Z,16.57
2018-06-17T03:33:13.521Z,15.07
2018-06-17T03:35:48.296Z,15.10
2018-06-17T03:38:18.329Z,16.07
2018-06-17T03:40:48.074Z,17.27
2018-06-17T03:43:17.824Z,18.57
2018-06-17T03:45:47.657Z,16.90
2018-06-17T03:48:17.404Z,16.57
2018-06-17T03:50:47.199Z,16.10
2018-06-17T03:53:17.012Z,16.20
2018-06-17T03:55:46.814Z,17.93
2018-06-17T03:58:16.575Z,17.17
2018-06-17T04:00:46.727Z,18.57
2018-06-17T04:03:16.509Z,15.77
2018-06-17T04:05:46.325Z,16.57
2018-06-17T04:08:16.177Z,17.23
2018-06-17T04:10:46.519Z,19.37
2018-06-17T04:13:16.290Z,13.83
2018-06-17T04:15:46.058Z,15.53
2018-06-17T04:18:15.869Z,19.23
2018-06-17T04:20:45.635Z,14.87
2018-06-17T04:23:15.425Z,18.77
2018-06-17T04:25:45.216Z,19.83
2018-06-17T04:28:14.965Z,17.33
2018-06-17T04:30:44.797Z,18.27
2018-06-17T04:33:14.574Z,18.03
2018-06-17T04:35:44.431Z,17.37
2018-06-17T04:38:14.204Z,19.27
2018-06-17T04:40:43.978Z,19.23
2018-06-17T04:43:13.804Z,17.40
2018-06-17T04:45:43.600Z,17.67
2018-06-17T04:48:13.565Z,17.90
2018-06-17T04:50:43.363Z,19.33
2018-06-17T04:53:13.146Z,18.80
2018-06-17T04:55:42.931Z,18.53
2018-06-17T04:58:12.677Z,16.67
2018-06-17T05:00:42.590Z,20.73
2018-06-17T05:03:12.365Z,17.23
2018-06-17T05:05:42.133Z,16.70
2018-06-17T05:08:11.917Z,13.83
2018-06-17T05:10:41.765Z,15.30
2018-06-17T05:13:11.570Z,17.07
2018-06-17T05:15:41.412Z,15.10
2018-06-17T05:18:11.157Z,14.50
2018-06-17T05:20:40.957Z,14.33
2018-06-17T05:23:10.762Z,15.63
2018-06-17T05:25:40.546Z,14.90
2018-06-17T05:28:10.342Z,14.57
2018-06-17T05:30:40.097Z,13.60
2018-06-17T05:33:09.994Z,13.43
2018-06-17T05:35:39.825Z,14.40
2018-06-17T05:38:09.599Z,14.87
2018-06-17T05:40:39.389Z,13.60
2018-06-17T05:43:09.186Z,14.17
2018-06-17T05:45:39.006Z,15.83
2018-06-17T05:48:08.814Z,12.40
2018-06-17T05:50:38.721Z,12.87
2018-06-17T05:53:08.565Z,11.47
2018-06-17T05:55:38.455Z,10.80
2018-06-17T05:58:08.278Z,10.83
2018-06-17T06:00:38.329Z,16.63
2018-06-17T06:03:08.106Z,14.87
2018-06-17T06:05:37.903Z,11.10
2018-06-17T06:08:07.842Z,13.10
2018-06-17T06:10:37.638Z,20.83
2018-06-17T06:13:07.470Z,15.10
2018-06-17T06:15:37.279Z,15.40
2018-06-17T06:18:07.080Z,15.13
2018-06-17T06:20:36.940Z,15.33
2018-06-17T06:23:06.764Z,14.37
2018-06-17T06:25:36.562Z,14.73
2018-06-17T06:28:06.389Z,19.53
2018-06-17T06:30:36.299Z,10.90
2018-06-17T06:33:06.064Z,14.30
2018-06-17T06:35:36.069Z,16.23
2018-06-17T06:38:06.037Z,12.30
2018-06-17T06:40:35.870Z,15.93
2018-06-17T06:43:05.783Z,16.33
2018-06-17T06:45:35.566Z,12.33
2018-06-17T06:48:05.494Z,16.50
2018-06-17T06:50:35.289Z,11.70
2018-06-17T06:53:05.207Z,12.47
2018-06-17T06:55:34.980Z,14.03
2018-06-17T06:58:04.826Z,15.40
2018-06-17T07:00:34.710Z,11.67
2018-06-17T07:03:15.098Z,11.70
2018-06-17T07:05:55.386Z,10.47
2018-06-17T07:08:35.779Z,13.20
2018-06-17T07:11:05.667Z,11.43
2018-06-17T07:13:35.474Z,10.07
2018-06-17T07:16:15.999Z,10.33
2018-06-17T07:18:45.806Z,9.30
2018-06-17T07:21:15.646Z,9.80
2018-06-17T07:23:45.453Z,11.27
2018-06-17T07:26:29.392Z,10.67
2018-06-17T07:29:09.826Z,11.00
2018-06-17T07:31:39.973Z,10.80
2018-06-17T07:34:10.495Z,9.23
2018-06-17T07:36:40.881Z,9.37
2018-06-17T07:40:24.263Z,16.03
2018-06-17T07:42:54.343Z,8.53
2018-06-17T07:45:24.227Z,9.73
2018-06-17T07:47:54.113Z,10.40
2018-06-17T07:50:34.391Z,7.80
2018-06-17T07:53:17.185Z,8.73
2018-06-17T07:55:47.763Z,9.23
2018-06-17T07:58:17.829Z,7.83
2018-06-17T08:00:47.655Z,7.70
2018-06-17T08:03:17.479Z,8.77
2018-06-17T08:05:47.330Z,7.97
2018-06-17T08:08:17.157Z,7.87
2018-06-17T08:10:46.940Z,11.80
2018-06-17T08:13:16.774Z,6.87
2018-06-17T08:15:46.592Z,5.93
2018-06-17T08:18:16.421Z,7.40
2018-06-17T08:20:46.185Z,9.17
2018-06-17T08:23:16.314Z,6.10
2018-06-17T08:25:46.123Z,5.93
2018-06-17T08:28:15.889Z,5.53
2018-06-17T08:30:45.745Z,5.17
2018-06-17T08:33:15.662Z,9.53
2018-06-17T08:35:45.493Z,6.87
2018-06-17T08:38:15.327Z,7.00
2018-06-17T08:40:45.153Z,6.13
2018-06-17T08:43:14.994Z,6.37
2018-06-17T08:45:44.781Z,8.83
2018-06-17T08:48:14.634Z,6.90
2018-06-17T08:50:44.461Z,5.67
2018-06-17T08:53:14.359Z,5.33
2018-06-17T08:55:44.186Z,6.77
2018-06-17T08:58:14.035Z,6.40
2018-06-17T09:00:44.000Z,6.80
2018-06-17T09:03:13.857Z,6.60
2018-06-17T09:05:43.765Z,3.57
2018-06-17T09:08:13.748Z,3.83
2018-06-17T09:10:43.808Z,4.23
2018-06-17T09:13:13.659Z,4.93
2018-06-17T09:15:43.547Z,12.30
2018-06-17T09:18:13.363Z,6.13
2018-06-17T09:20:43.237Z,4.40
2018-06-17T09:23:13.061Z,3.47
2018-06-17T09:25:42.954Z,6.13
2018-06-17T09:28:13.345Z,3.87
2018-06-17T09:30:43.171Z,4.53
2018-06-17T09:33:13.097Z,4.43
2018-06-17T09:35:42.985Z,5.63
2018-06-17T09:38:12.809Z,4.47
2018-06-17T09:40:42.683Z,4.13
2018-06-17T09:43:12.510Z,7.57
2018-06-17T09:45:42.475Z,6.20
2018-06-17T09:48:12.249Z,4.50
2018-06-17T09:50:42.053Z,5.13
2018-06-17T09:53:11.913Z,5.17
2018-06-17T09:55:41.913Z,3.83
2018-06-17T09:58:11.791Z,3.20
2018-06-17T10:00:41.633Z,3.57
2018-06-17T10:03:11.535Z,4.03
2018-06-17T10:05:41.478Z,7.03
2018-06-17T10:08:11.526Z,3.20
2018-06-17T10:10:48.612Z,3.87
2018-06-17T10:13:19.807Z,5.37
2018-06-17T10:15:50.136Z,4.33
2018-06-17T10:18:20.737Z,6.67
2018-06-17T10:20:50.709Z,4.57
2018-06-17T10:23:20.701Z,5.17
2018-06-17T10:25:50.619Z,4.47
2018-06-17T10:28:21.231Z,10.10
2018-06-17T10:30:52.296Z,3.10
2018-06-17T10:33:22.366Z,4.07
2018-06-17T10:35:52.251Z,3.50
2018-06-17T10:38:22.330Z,4.93
2018-06-17T10:40:52.231Z,7.00
2018-06-17T10:43:24.901Z,3.90
2018-06-17T10:45:54.834Z,3.00
2018-06-17T10:48:24.773Z,7.63
2018-06-17T10:50:55.128Z,3.00
2018-06-17T10:53:25.168Z,4.80
2018-06-17T10:55:55.182Z,9.80
2018-06-17T10:58:25.425Z,3.20
2018-06-17T11:00:55.370Z,3.03
2018-06-17T11:03:25.322Z,5.83
2018-06-17T11:05:55.213Z,4.20
2018-06-17T11:08:25.055Z,3.30
2018-06-17T11:10:55.362Z,6.03
2018-06-17T11:13:25.261Z,8.30
2018-06-17T11:15:55.162Z,4.03
2018-06-17T11:18:25.058Z,5.37
2018-06-17T11:20:55.110Z,3.53
2018-06-17T11:23:24.956Z,3.80
2018-06-17T11:25:54.861Z,3.77
2018-06-17T11:28:24.810Z,3.40
2018-06-17T11:30:54.680Z,4.17
2018-06-17T11:33:24.555Z,2.77
2018-06-17T11:35:54.495Z,3.83
2018-06-17T11:38:25.278Z,4.80
2018-06-17T11:40:55.331Z,3.60
2018-06-17T11:43:25.338Z,4.07
2018-06-17T11:45:55.777Z,4.50
2018-06-17T11:48:26.038Z,5.10
2018-06-17T11:50:55.859Z,8.13
2018-06-17T11:53:25.836Z,3.20
2018-06-17T11:55:56.063Z,3.83
2018-06-17T11:58:25.945Z,5.83
2018-06-17T12:00:55.899Z,2.97
2018-06-17T12:03:25.749Z,3.87
2018-06-17T12:05:55.740Z,6.50
2018-06-17T12:08:25.590Z,7.60
2018-06-17T12:10:56.990Z,3.13
2018-06-17T12:13:26.830Z,8.43
2018-06-17T12:15:57.774Z,3.00
2018-06-17T12:18:27.868Z,4.03
2018-06-17T12:20:57.786Z,3.33
2018-06-17T12:23:28.059Z,3.63
2018-06-17T12:25:58.482Z,2.90
2018-06-17T12:28:28.305Z,5.77
2018-06-17T12:30:58.202Z,3.30
2018-06-17T12:33:28.169Z,4.53
2018-06-17T12:35:58.536Z,3.83
2018-06-17T12:38:28.718Z,3.53
2018-06-17T12:40:59.013Z,5.60
2018-06-17T12:43:28.821Z,5.17
2018-06-17T12:45:58.793Z,3.60
2018-06-17T12:48:28.629Z,4.37
2018-06-17T12:50:58.527Z,6.33
2018-06-17T12:53:28.382Z,4.93
2018-06-17T12:55:58.258Z,13.90
2018-06-17T12:58:28.613Z,18.47
2018-06-17T13:00:58.571Z,10.43
2018-06-17T13:03:28.373Z,7.33
2018-06-17T13:05:58.264Z,13.13
2018-06-17T13:08:28.121Z,8.07
2018-06-17T13:10:57.929Z,10.73
2018-06-17T13:13:27.782Z,6.53
2018-06-17T13:15:57.607Z,5.17
2018-06-17T13:18:27.640Z,4.83
2018-06-17T13:20:57.517Z,4.00
2018-06-17T13:23:27.364Z,2.93
2018-06-17T13:25:57.224Z,3.17
2018-06-17T13:28:27.085Z,5.10
2018-06-17T13:30:57.864Z,4.27
2018-06-17T13:33:27.751Z,3.23
2018-06-17T13:35:57.645Z,9.17
2018-06-17T13:38:27.446Z,3.67
2018-06-17T13:40:57.284Z,3.70
2018-06-17T13:43:27.180Z,7.53
2018-06-17T13:45:57.304Z,7.00
2018-06-17T13:48:27.513Z,4.13
2018-06-17T13:50:57.464Z,7.10
2018-06-17T13:53:27.313Z,4.07
2018-06-17T13:55:57.288Z,4.47
2018-06-17T13:58:27.466Z,5.80
2018-06-17T14:00:57.344Z,7.23
2018-06-17T14:03:27.302Z,3.77
2018-06-17T14:05:59.027Z,3.97
2018-06-17T14:08:28.894Z,6.43
2018-06-17T14:10:58.727Z,4.73
2018-06-17T14:13:28.730Z,3.27
2018-06-17T14:15:58.772Z,4.20
2018-06-17T14:18:28.701Z,5.37
2018-06-17T14:20:58.517Z,4.53
2018-06-17T14:23:28.404Z,3.87
2018-06-17T14:25:58.239Z,3.20
2018-06-17T14:28:28.069Z,3.20
2018-06-17T14:30:57.994Z,3.43
2018-06-17T14:33:27.910Z,3.77
2018-06-17T14:35:57.912Z,3.53
2018-06-17T14:38:27.729Z,4.60
2018-06-17T14:41:02.685Z,2.80
2018-06-17T14:43:37.463Z,4.53
2018-06-17T14:46:12.339Z,6.20
2018-06-17T14:48:47.058Z,3.47
2018-06-17T14:51:21.851Z,4.97
2018-06-17T14:53:51.660Z,5.93
2018-06-17T14:56:21.610Z,3.13
2018-06-17T14:58:51.562Z,4.30
2018-06-17T15:01:21.445Z,3.77
2018-06-17T15:03:51.305Z,5.20
2018-06-17T15:06:21.338Z,3.93
2018-06-17T15:08:51.205Z,4.27
2018-06-17T15:11:21.023Z,4.20
2018-06-17T15:13:50.948Z,5.53
2018-06-17T15:16:20.750Z,4.40
2018-06-17T15:18:50.601Z,7.17
2018-06-17T15:21:20.472Z,3.60
2018-06-17T15:23:50.369Z,4.20
2018-06-17T15:26:20.791Z,5.60
2018-06-17T15:28:50.694Z,4.57
2018-06-17T15:31:25.488Z,4.57
2018-06-17T15:34:00.387Z,3.87
2018-06-17T15:36:35.138Z,6.10
2018-06-17T15:39:10.934Z,3.40
2018-06-17T15:41:40.872Z,4.50
2018-06-17T15:44:11.111Z,5.93
2018-06-17T15:46:41.147Z,4.90
2018-06-17T15:49:11.209Z,7.07
2018-06-17T15:51:42.449Z,6.30
2018-06-17T15:54:12.465Z,4.60
2018-06-17T15:56:42.323Z,4.80
2018-06-17T15:59:12.432Z,4.17
2018-06-17T16:01:42.610Z,4.30
2018-06-17T16:04:12.710Z,5.87
2018-06-17T16:06:43.169Z,5.00
2018-06-17T16:09:13.788Z,2.97
2018-06-17T16:11:48.779Z,6.63
2018-06-17T16:14:23.681Z,8.93
2018-06-17T16:16:58.869Z,4.00
2018-06-17T16:19:33.432Z,3.20
2018-06-17T16:22:03.236Z,3.20
2018-06-17T16:24:33.206Z,2.90
2018-06-17T16:27:03.113Z,5.30
2018-06-17T16:29:33.041Z,5.07
2018-06-17T16:32:03.457Z,4.80
2018-06-17T16:34:33.631Z,3.87
2018-06-17T16:37:03.442Z,3.67
2018-06-17T16:39:33.251Z,4.63
2018-06-17T16:42:03.046Z,3.00
2018-06-17T16:44:32.853Z,4.00
2018-06-17T16:47:02.603Z,8.70
2018-06-17T16:49:32.502Z,4.33
2018-06-17T16:52:07.342Z,3.90
2018-06-17T16:54:42.229Z,3.73
2018-06-17T16:57:16.946Z,3.43
2018-06-17T16:59:55.301Z,4.83
2018-06-17T17:02:25.122Z,4.37
2018-06-17T17:04:55.240Z,6.43
2018-06-17T17:07:25.156Z,3.67
2018-06-17T17:09:56.123Z,3.37
2018-06-17T17:12:26.040Z,4.70
2018-06-17T17:14:56.378Z,3.40
2018-06-17T17:17:26.268Z,8.43
2018-06-17T17:19:56.157Z,3.30
2018-06-17T17:22:26.113Z,4.30
2018-06-17T17:24:56.016Z,3.57
2018-06-17T17:27:25.881Z,4.67
2018-06-17T17:29:55.785Z,7.87
2018-06-17T17:32:30.844Z,7.77
2018-06-17T17:35:06.105Z,5.10
2018-06-17T17:37:40.765Z,4.20
2018-06-17T17:42:51.779Z,4.53
2018-06-17T17:45:23.285Z,4.33
2018-06-17T17:47:53.307Z,9.03
2018-06-17T17:50:23.519Z,8.00
2018-06-17T17:52:53.584Z,6.63
2018-06-17T17:55:23.576Z,8.17
2018-06-17T17:57:53.426Z,5.83
2018-06-17T18:00:23.216Z,4.13
2018-06-17T18:02:53.034Z,4.23
2018-06-17T18:05:22.851Z,6.37
2018-06-17T18:07:53.118Z,5.07
2018-06-17T18:10:22.909Z,7.93
2018-06-17T18:12:52.789Z,6.23
2018-06-17T18:15:22.739Z,11.53
2018-06-17T18:17:52.797Z,9.40
2018-06-17T18:20:22.726Z,11.37
2018-06-17T18:22:52.965Z,7.20
2018-06-17T18:25:27.638Z,5.73
2018-06-17T18:28:02.306Z,6.47
2018-06-17T18:30:36.957Z,5.00
2018-06-17T18:33:12.108Z,6.83
2018-06-17T18:35:46.840Z,11.77
2018-06-17T18:38:16.607Z,6.07
2018-06-17T18:40:46.494Z,5.07
2018-06-17T18:43:16.310Z,5.10
2018-06-17T18:45:46.104Z,5.40
2018-06-17T18:48:15.924Z,5.93
2018-06-17T18:50:45.721Z,9.23
2018-06-17T18:53:21.337Z,11.07
2018-06-17T18:55:51.113Z,8.77
2018-06-17T18:58:21.335Z,9.17
2018-06-17T19:00:51.920Z,8.33
2018-06-17T19:03:22.312Z,8.47
2018-06-17T19:05:52.158Z,6.40
2018-06-17T19:08:26.908Z,11.30
2018-06-17T19:11:01.628Z,7.00
2018-06-17T19:13:36.472Z,8.57
2018-06-17T19:16:13.912Z,5.93
2018-06-17T19:18:43.763Z,7.30
2018-06-17T19:21:13.954Z,6.60
2018-06-17T19:23:43.948Z,7.00
2018-06-17T19:26:13.726Z,9.67
2018-06-17T19:28:43.558Z,9.90
2018-06-17T19:31:13.310Z,6.50
2018-06-17T19:33:43.081Z,7.37
2018-06-17T19:36:13.736Z,9.20
2018-06-17T19:38:44.003Z,7.07
2018-06-17T19:41:14.439Z,19.00
2018-06-17T19:43:47.894Z,27.93
2018-06-17T19:46:20.481Z,36.00
2018-06-17T19:48:50.995Z,34.80
2018-06-17T19:51:28.426Z,24.57
2018-06-17T19:54:06.408Z,28.93
2018-06-17T19:56:40.981Z,17.83
2018-06-17T19:59:15.600Z,27.37
2018-06-17T20:01:45.437Z,15.03
2018-06-17T20:04:15.246Z,14.63
2018-06-17T20:06:45.016Z,10.90
2018-06-17T20:09:14.869Z,14.37
2018-06-17T20:11:44.740Z,12.97
2018-06-17T20:14:14.749Z,10.97
2018-06-17T20:16:44.530Z,12.13
2018-06-17T20:19:14.658Z,7.40
2018-06-17T20:21:44.520Z,8.50
2018-06-17T20:24:14.321Z,8.50
2018-06-17T20:26:44.076Z,8.63
2018-06-17T20:29:14.076Z,9.20
2018-06-17T20:31:48.928Z,7.50
2018-06-17T20:34:23.601Z,12.90
2018-06-17T20:36:58.257Z,10.63
2018-06-17T20:39:32.831Z,8.57
2018-06-17T20:42:07.688Z,11.30
2018-06-17T20:44:37.485Z,14.80
2018-06-17T20:47:07.305Z,7.53
2018-06-17T20:49:37.066Z,10.27
2018-06-17T20:52:07.318Z,16.80
2018-06-17T20:54:37.075Z,17.87
2018-06-17T20:57:06.870Z,32.13
2018-06-17T20:59:36.719Z,12.67
2018-06-17T21:02:06.480Z,22.43
2018-06-17T21:04:36.343Z,12.17
2018-06-17T21:07:06.317Z,20.50
2018-06-17T21:09:36.097Z,7.50
2018-06-17T21:12:10.904Z,11.70
2018-06-17T21:14:41.838Z,13.53
2018-06-17T21:17:19.537Z,13.00
2018-06-17T21:20:15.190Z,11.63
2018-06-17T21:22:51.061Z,13.67
2018-06-17T21:25:26.203Z,18.73
2018-06-17T21:27:58.145Z,25.07
2018-06-17T21:30:28.021Z,17.43
2018-06-17T21:32:57.853Z,12.53
2018-06-17T21:35:27.697Z,12.20
2018-06-17T21:37:57.491Z,15.67
2018-06-17T21:40:27.321Z,20.70
2018-06-17T21:42:57.133Z,13.17
2018-06-17T21:45:26.942Z,15.67
2018-06-17T21:47:56.874Z,11.97
2018-06-17T21:50:26.692Z,11.50
2018-06-17T21:52:56.726Z,9.20
2018-06-17T21:55:26.598Z,8.80
2018-06-17T21:57:56.457Z,10.37
2018-06-17T22:00:26.415Z,6.80
2018-06-17T22:02:56.221Z,8.30
2018-06-17T22:05:25.962Z,6.40
2018-06-17T22:08:00.553Z,7.83
2018-06-17T22:10:35.253Z,6.87
2018-06-17T22:13:05.445Z,9.77
2018-06-17T22:15:39.999Z,9.83
2018-06-17T22:18:09.806Z,5.57
2018-06-17T22:20:39.551Z,7.37
2018-06-17T22:23:09.346Z,6.03
2018-06-17T22:25:39.125Z,7.23
2018-06-17T22:28:08.945Z,5.73
2018-06-17T22:30:38.685Z,5.53
2018-06-17T22:33:08.486Z,3.40
2018-06-17T22:35:38.318Z,3.90
2018-06-17T22:38:08.072Z,6.20
2018-06-17T22:40:37.879Z,4.93
2018-06-17T22:43:07.623Z,4.60
2018-06-17T22:45:37.376Z,6.53
2018-06-17T22:48:07.238Z,4.93
2018-06-17T22:50:36.974Z,7.17
2018-06-17T22:53:17.206Z,5.20
2018-06-17T22:55:46.988Z,6.90
2018-06-17T22:58:21.477Z,4.27
2018-06-17T23:00:56.113Z,5.93
2018-06-17T23:03:30.831Z,3.40
2018-06-17T23:06:05.522Z,4.07
2018-06-17T23:08:40.087Z,8.40
2018-06-17T23:11:09.877Z,5.90
2018-06-17T23:13:39.657Z,3.57
2018-06-17T23:16:09.685Z,6.23
2018-06-17T23:18:39.439Z,6.73
2018-06-17T23:21:09.239Z,5.43
2018-06-17T23:23:38.978Z,4.97
2018-06-17T23:26:08.730Z,3.77
2018-06-17T23:28:38.959Z,3.30
2018-06-17T23:31:09.057Z,2.83
2018-06-17T23:33:38.860Z,2.20
2018-06-17T23:36:08.856Z,2.20
2018-06-17T23:38:38.662Z,2.67
2018-06-17T23:41:08.656Z,3.67
2018-06-17T23:43:38.446Z,4.13
2018-06-17T23:46:13.081Z,2.10
2018-06-17T23:48:47.877Z,3.63
2018-06-17T23:51:22.534Z,2.10
2018-06-17T23:53:57.087Z,3.80
2018-06-17T23:56:26.873Z,2.07
2018-06-17T23:58:56.637Z,2.00
